sensor_id;sensor_type;location;lat;lon;timestamp;P1;durP1;ratioP1;P2;durP2;ratioP2
50104;SDS011;47690;39.202;-77.198;2023-02-15T00:00:42;3.20;;;1.67;;
50104;SDS011;47690;39.202;-77.198;2023-02-15T00:07:51;1.52;;;1.40;;
50104;SDS011;47690;39.202;-77.198;2023-02-15T00:11:06;1.85;;;1.65;;
50104;SDS011;47690;39.202;-77.198;2023-02-15T00:14:20;2.20;;;1.50;;
50104;SDS011;47690;39.202;-77.198;2023-02-15T00:17:51;2.10;;;1.48;;
50104;SDS011;47690;39.202;-77.198;2023-02-15T00:20:50;1.33;;;1.25;;
50104;SDS011;47690;39.202;-77.198;2023-02-15T00:23:51;2.47;;;1.70;;
50104;SDS011;47690;39.202;-77.198;2023-02-15T00:27:00;1.45;;;1.35;;
50104;SDS011;47690;39.202;-77.198;2023-02-15T00:34:10;1.63;;;1.30;;
50104;SDS011;47690;39.202;-77.198;2023-02-15T00:37:22;2.20;;;1.48;;
50104;SDS011;47690;39.202;-77.198;2023-02-15T00:40:42;2.17;;;1.42;;
50104;SDS011;47690;39.202;-77.198;2023-02-15T00:44:06;2.38;;;1.50;;
50104;SDS011;47690;39.202;-77.198;2023-02-15T00:47:12;2.40;;;1.33;;
50104;SDS011;47690;39.202;-77.198;2023-02-15T00:50:14;1.85;;;1.70;;
50104;SDS011;47690;39.202;-77.198;2023-02-15T00:53:11;2.55;;;1.85;;
50104;SDS011;47690;39.202;-77.198;2023-02-15T00:56:23;1.60;;;1.50;;
50104;SDS011;47690;39.202;-77.198;2023-02-15T00:59:27;3.20;;;1.40;;
50104;SDS011;47690;39.202;-77.198;2023-02-15T01:02:42;1.60;;;1.50;;
50104;SDS011;47690;39.202;-77.198;2023-02-15T01:06:07;2.13;;;1.60;;
50104;SDS011;47690;39.202;-77.198;2023-02-15T01:09:23;1.98;;;1.77;;
50104;SDS011;47690;39.202;-77.198;2023-02-15T01:12:47;1.60;;;1.50;;
50104;SDS011;47690;39.202;-77.198;2023-02-15T01:16:04;2.00;;;1.63;;
50104;SDS011;47690;39.202;-77.198;2023-02-15T01:19:14;1.77;;;1.33;;
50104;SDS011;47690;39.202;-77.198;2023-02-15T01:22:48;1.83;;;1.70;;
50104;SDS011;47690;39.202;-77.198;2023-02-15T01:29:44;3.42;;;1.92;;
50104;SDS011;47690;39.202;-77.198;2023-02-15T01:32:51;2.42;;;1.83;;
50104;SDS011;47690;39.202;-77.198;2023-02-15T01:39:40;2.08;;;1.75;;
50104;SDS011;47690;39.202;-77.198;2023-02-15T01:42:51;1.98;;;1.80;;
50104;SDS011;47690;39.202;-77.198;2023-02-15T01:46:06;2.05;;;1.80;;
50104;SDS011;47690;39.202;-77.198;2023-02-15T01:49:19;2.08;;;1.77;;
50104;SDS011;47690;39.202;-77.198;2023-02-15T01:52:32;2.60;;;2.00;;
50104;SDS011;47690;39.202;-77.198;2023-02-15T01:55:45;2.13;;;1.90;;
50104;SDS011;47690;39.202;-77.198;2023-02-15T01:59:08;2.60;;;2.30;;
50104;SDS011;47690;39.202;-77.198;2023-02-15T02:09:26;3.70;;;2.13;;
50104;SDS011;47690;39.202;-77.198;2023-02-15T02:12:26;3.05;;;2.30;;
50104;SDS011;47690;39.202;-77.198;2023-02-15T02:37:24;3.65;;;2.20;;
50104;SDS011;47690;39.202;-77.198;2023-02-15T02:44:23;2.10;;;1.90;;
50104;SDS011;47690;39.202;-77.198;2023-02-15T02:47:40;2.92;;;1.77;;
50104;SDS011;47690;39.202;-77.198;2023-02-15T02:51:00;2.60;;;2.15;;
50104;SDS011;47690;39.202;-77.198;2023-02-15T02:57:41;3.50;;;2.25;;
50104;SDS011;47690;39.202;-77.198;2023-02-15T03:01:18;3.03;;;2.17;;
50104;SDS011;47690;39.202;-77.198;2023-02-15T03:04:29;2.40;;;2.08;;
50104;SDS011;47690;39.202;-77.198;2023-02-15T03:15:02;3.75;;;2.28;;
50104;SDS011;47690;39.202;-77.198;2023-02-15T03:18:10;2.45;;;2.17;;
50104;SDS011;47690;39.202;-77.198;2023-02-15T03:21:20;2.95;;;2.40;;
50104;SDS011;47690;39.202;-77.198;2023-02-15T03:25:02;3.45;;;2.72;;
50104;SDS011;47690;39.202;-77.198;2023-02-15T03:28:43;3.22;;;2.60;;
50104;SDS011;47690;39.202;-77.198;2023-02-15T03:31:48;2.92;;;2.17;;
50104;SDS011;47690;39.202;-77.198;2023-02-15T03:34:55;2.92;;;2.47;;
50104;SDS011;47690;39.202;-77.198;2023-02-15T03:43:14;2.30;;;2.00;;
50104;SDS011;47690;39.202;-77.198;2023-02-15T03:47:39;2.63;;;2.10;;
50104;SDS011;47690;39.202;-77.198;2023-02-15T03:50:53;2.53;;;2.10;;
50104;SDS011;47690;39.202;-77.198;2023-02-15T03:54:31;3.30;;;2.10;;
50104;SDS011;47690;39.202;-77.198;2023-02-15T03:57:39;3.47;;;2.40;;
50104;SDS011;47690;39.202;-77.198;2023-02-15T04:01:05;2.20;;;2.00;;
50104;SDS011;47690;39.202;-77.198;2023-02-15T04:05:02;2.58;;;2.00;;
50104;SDS011;47690;39.202;-77.198;2023-02-15T04:08:03;2.58;;;2.00;;
50104;SDS011;47690;39.202;-77.198;2023-02-15T04:11:08;2.85;;;2.03;;
50104;SDS011;47690;39.202;-77.198;2023-02-15T04:14:11;2.60;;;2.00;;
50104;SDS011;47690;39.202;-77.198;2023-02-15T04:17:36;2.28;;;1.92;;
50104;SDS011;47690;39.202;-77.198;2023-02-15T04:20:44;2.53;;;2.00;;
50104;SDS011;47690;39.202;-77.198;2023-02-15T04:24:32;2.50;;;2.00;;
50104;SDS011;47690;39.202;-77.198;2023-02-15T04:28:04;2.90;;;1.95;;
50104;SDS011;47690;39.202;-77.198;2023-02-15T04:31:10;2.35;;;1.88;;
50104;SDS011;47690;39.202;-77.198;2023-02-15T04:34:20;2.75;;;2.00;;
50104;SDS011;47690;39.202;-77.198;2023-02-15T04:37:32;2.53;;;1.98;;
50104;SDS011;47690;39.202;-77.198;2023-02-15T04:41:02;3.35;;;2.00;;
50104;SDS011;47690;39.202;-77.198;2023-02-15T04:44:03;2.10;;;1.90;;
50104;SDS011;47690;39.202;-77.198;2023-02-15T04:47:27;2.53;;;2.10;;
50104;SDS011;47690;39.202;-77.198;2023-02-15T04:50:56;2.58;;;1.90;;
50104;SDS011;47690;39.202;-77.198;2023-02-15T04:55:10;2.70;;;1.95;;
50104;SDS011;47690;39.202;-77.198;2023-02-15T04:58:14;2.30;;;1.95;;
50104;SDS011;47690;39.202;-77.198;2023-02-15T05:01:42;2.50;;;2.10;;
50104;SDS011;47690;39.202;-77.198;2023-02-15T05:04:42;3.03;;;1.95;;
50104;SDS011;47690;39.202;-77.198;2023-02-15T05:07:40;2.75;;;2.22;;
50104;SDS011;47690;39.202;-77.198;2023-02-15T05:11:42;2.17;;;1.95;;
50104;SDS011;47690;39.202;-77.198;2023-02-15T05:19:19;2.20;;;1.95;;
50104;SDS011;47690;39.202;-77.198;2023-02-15T05:22:31;2.53;;;2.22;;
50104;SDS011;47690;39.202;-77.198;2023-02-15T05:25:39;2.60;;;2.20;;
50104;SDS011;47690;39.202;-77.198;2023-02-15T05:32:36;2.63;;;2.10;;
50104;SDS011;47690;39.202;-77.198;2023-02-15T05:39:06;2.00;;;1.80;;
50104;SDS011;47690;39.202;-77.198;2023-02-15T05:42:03;3.05;;;1.90;;
50104;SDS011;47690;39.202;-77.198;2023-02-15T05:45:14;2.72;;;1.80;;
50104;SDS011;47690;39.202;-77.198;2023-02-15T05:52:14;2.40;;;1.70;;
50104;SDS011;47690;39.202;-77.198;2023-02-15T05:55:14;3.22;;;1.83;;
50104;SDS011;47690;39.202;-77.198;2023-02-15T05:58:14;1.80;;;1.70;;
50104;SDS011;47690;39.202;-77.198;2023-02-15T06:01:23;2.20;;;1.80;;
50104;SDS011;47690;39.202;-77.198;2023-02-15T06:04:26;2.50;;;1.67;;
50104;SDS011;47690;39.202;-77.198;2023-02-15T06:07:35;2.10;;;1.80;;
50104;SDS011;47690;39.202;-77.198;2023-02-15T06:11:07;1.95;;;1.60;;
50104;SDS011;47690;39.202;-77.198;2023-02-15T06:14:10;1.80;;;1.70;;
50104;SDS011;47690;39.202;-77.198;2023-02-15T06:17:19;2.30;;;1.90;;
50104;SDS011;47690;39.202;-77.198;2023-02-15T06:24:04;3.22;;;1.58;;
50104;SDS011;47690;39.202;-77.198;2023-02-15T06:27:17;1.70;;;1.60;;
50104;SDS011;47690;39.202;-77.198;2023-02-15T06:30:23;2.00;;;1.60;;
50104;SDS011;47690;39.202;-77.198;2023-02-15T06:34:04;2.00;;;1.75;;
50104;SDS011;47690;39.202;-77.198;2023-02-15T06:37:03;1.85;;;1.67;;
50104;SDS011;47690;39.202;-77.198;2023-02-15T06:40:03;1.80;;;1.50;;
50104;SDS011;47690;39.202;-77.198;2023-02-15T06:43:10;2.03;;;1.83;;
50104;SDS011;47690;39.202;-77.198;2023-02-15T06:46:23;1.67;;;1.50;;
50104;SDS011;47690;39.202;-77.198;2023-02-15T06:49:28;1.70;;;1.60;;
50104;SDS011;47690;39.202;-77.198;2023-02-15T06:52:28;2.00;;;1.80;;
50104;SDS011;47690;39.202;-77.198;2023-02-15T06:55:26;1.92;;;1.65;;
50104;SDS011;47690;39.202;-77.198;2023-02-15T06:58:38;1.70;;;1.60;;
50104;SDS011;47690;39.202;-77.198;2023-02-15T07:01:46;2.03;;;1.80;;
50104;SDS011;47690;39.202;-77.198;2023-02-15T07:05:15;1.95;;;1.77;;
50104;SDS011;47690;39.202;-77.198;2023-02-15T07:08:16;2.03;;;1.75;;
50104;SDS011;47690;39.202;-77.198;2023-02-15T07:11:24;3.03;;;1.73;;
50104;SDS011;47690;39.202;-77.198;2023-02-15T07:14:48;1.70;;;1.60;;
50104;SDS011;47690;39.202;-77.198;2023-02-15T07:18:03;2.00;;;1.80;;
50104;SDS011;47690;39.202;-77.198;2023-02-15T07:21:07;2.00;;;1.80;;
50104;SDS011;47690;39.202;-77.198;2023-02-15T07:24:10;2.00;;;1.80;;
50104;SDS011;47690;39.202;-77.198;2023-02-15T07:27:20;1.70;;;1.60;;
50104;SDS011;47690;39.202;-77.198;2023-02-15T07:34:05;1.75;;;1.65;;
50104;SDS011;47690;39.202;-77.198;2023-02-15T07:37:11;2.15;;;1.60;;
50104;SDS011;47690;39.202;-77.198;2023-02-15T07:40:22;1.63;;;1.52;;
50104;SDS011;47690;39.202;-77.198;2023-02-15T07:43:36;1.92;;;1.52;;
50104;SDS011;47690;39.202;-77.198;2023-02-15T07:46:43;2.17;;;1.90;;
50104;SDS011;47690;39.202;-77.198;2023-02-15T07:53:23;1.65;;;1.55;;
50104;SDS011;47690;39.202;-77.198;2023-02-15T08:00:06;2.08;;;1.70;;
50104;SDS011;47690;39.202;-77.198;2023-02-15T08:03:04;2.08;;;1.77;;
50104;SDS011;47690;39.202;-77.198;2023-02-15T08:06:20;1.80;;;1.70;;
50104;SDS011;47690;39.202;-77.198;2023-02-15T08:13:43;2.00;;;1.63;;
50104;SDS011;47690;39.202;-77.198;2023-02-15T08:17:41;2.25;;;1.90;;
50104;SDS011;47690;39.202;-77.198;2023-02-15T08:25:11;2.00;;;1.80;;
50104;SDS011;47690;39.202;-77.198;2023-02-15T08:28:10;2.00;;;1.80;;
50104;SDS011;47690;39.202;-77.198;2023-02-15T08:31:18;1.98;;;1.80;;
50104;SDS011;47690;39.202;-77.198;2023-02-15T08:34:32;1.63;;;1.52;;
50104;SDS011;47690;39.202;-77.198;2023-02-15T08:37:46;1.90;;;1.70;;
50104;SDS011;47690;39.202;-77.198;2023-02-15T08:40:51;1.70;;;1.60;;
50104;SDS011;47690;39.202;-77.198;2023-02-15T08:44:04;1.80;;;1.70;;
50104;SDS011;47690;39.202;-77.198;2023-02-15T08:50:50;1.73;;;1.63;;
50104;SDS011;47690;39.202;-77.198;2023-02-15T08:53:51;1.58;;;1.48;;
50104;SDS011;47690;39.202;-77.198;2023-02-15T08:56:50;2.17;;;1.58;;
50104;SDS011;47690;39.202;-77.198;2023-02-15T09:00:02;1.70;;;1.60;;
50104;SDS011;47690;39.202;-77.198;2023-02-15T09:03:11;1.70;;;1.60;;
50104;SDS011;47690;39.202;-77.198;2023-02-15T09:06:18;2.80;;;1.70;;
50104;SDS011;47690;39.202;-77.198;2023-02-15T09:09:22;1.77;;;1.67;;
50104;SDS011;47690;39.202;-77.198;2023-02-15T09:12:29;1.85;;;1.75;;
50104;SDS011;47690;39.202;-77.198;2023-02-15T09:15:35;1.80;;;1.67;;
50104;SDS011;47690;39.202;-77.198;2023-02-15T09:18:43;1.63;;;1.52;;
50104;SDS011;47690;39.202;-77.198;2023-02-15T09:21:54;1.90;;;1.67;;
50104;SDS011;47690;39.202;-77.198;2023-02-15T09:25:03;1.50;;;1.40;;
50104;SDS011;47690;39.202;-77.198;2023-02-15T09:28:11;3.20;;;2.05;;
50104;SDS011;47690;39.202;-77.198;2023-02-15T09:31:23;1.75;;;1.65;;
50104;SDS011;47690;39.202;-77.198;2023-02-15T09:34:36;1.80;;;1.70;;
50104;SDS011;47690;39.202;-77.198;2023-02-15T09:37:48;1.80;;;1.70;;
50104;SDS011;47690;39.202;-77.198;2023-02-15T09:40:54;2.17;;;1.80;;
50104;SDS011;47690;39.202;-77.198;2023-02-15T09:47:57;3.30;;;1.90;;
50104;SDS011;47690;39.202;-77.198;2023-02-15T09:51:39;1.80;;;1.70;;
50104;SDS011;47690;39.202;-77.198;2023-02-15T09:55:03;1.70;;;1.60;;
50104;SDS011;47690;39.202;-77.198;2023-02-15T09:58:22;1.73;;;1.50;;
50104;SDS011;47690;39.202;-77.198;2023-02-15T10:13:41;2.50;;;1.90;;
50104;SDS011;47690;39.202;-77.198;2023-02-15T10:16:56;1.80;;;1.70;;
50104;SDS011;47690;39.202;-77.198;2023-02-15T10:20:15;1.67;;;1.58;;
50104;SDS011;47690;39.202;-77.198;2023-02-15T10:23:49;1.75;;;1.63;;
50104;SDS011;47690;39.202;-77.198;2023-02-15T10:27:07;1.80;;;1.70;;
50104;SDS011;47690;39.202;-77.198;2023-02-15T10:30:59;1.80;;;1.70;;
50104;SDS011;47690;39.202;-77.198;2023-02-15T10:33:58;2.30;;;1.70;;
50104;SDS011;47690;39.202;-77.198;2023-02-15T10:51:02;1.60;;;1.50;;
50104;SDS011;47690;39.202;-77.198;2023-02-15T10:57:49;1.75;;;1.55;;
50104;SDS011;47690;39.202;-77.198;2023-02-15T11:07:56;1.70;;;1.60;;
50104;SDS011;47690;39.202;-77.198;2023-02-15T11:11:08;2.40;;;1.55;;
50104;SDS011;47690;39.202;-77.198;2023-02-15T11:25:39;1.17;;;1.17;;
50104;SDS011;47690;39.202;-77.198;2023-02-15T11:28:41;1.52;;;1.42;;
50104;SDS011;47690;39.202;-77.198;2023-02-15T11:39:14;1.63;;;1.45;;
50104;SDS011;47690;39.202;-77.198;2023-02-15T11:42:33;2.33;;;1.98;;
50104;SDS011;47690;39.202;-77.198;2023-02-15T11:45:35;2.13;;;1.88;;
50104;SDS011;47690;39.202;-77.198;2023-02-15T11:48:43;2.10;;;1.90;;
50104;SDS011;47690;39.202;-77.198;2023-02-15T11:51:51;1.98;;;1.77;;
50104;SDS011;47690;39.202;-77.198;2023-02-15T11:55:18;2.45;;;1.80;;
50104;SDS011;47690;39.202;-77.198;2023-02-15T11:58:52;1.70;;;1.60;;
50104;SDS011;47690;39.202;-77.198;2023-02-15T12:02:21;2.45;;;1.83;;
50104;SDS011;47690;39.202;-77.198;2023-02-15T12:05:55;1.60;;;1.50;;
50104;SDS011;47690;39.202;-77.198;2023-02-15T12:09:05;2.03;;;1.60;;
50104;SDS011;47690;39.202;-77.198;2023-02-15T12:12:42;1.63;;;1.50;;
50104;SDS011;47690;39.202;-77.198;2023-02-15T12:15:44;1.70;;;1.60;;
50104;SDS011;47690;39.202;-77.198;2023-02-15T12:18:52;2.40;;;1.55;;
50104;SDS011;47690;39.202;-77.198;2023-02-15T12:22:45;1.88;;;1.77;;
50104;SDS011;47690;39.202;-77.198;2023-02-15T12:29:48;1.80;;;1.58;;
50104;SDS011;47690;39.202;-77.198;2023-02-15T12:37:32;1.60;;;1.50;;
50104;SDS011;47690;39.202;-77.198;2023-02-15T12:41:01;1.70;;;1.52;;
50104;SDS011;47690;39.202;-77.198;2023-02-15T12:48:32;1.52;;;1.42;;
50104;SDS011;47690;39.202;-77.198;2023-02-15T12:51:52;1.40;;;1.30;;
50104;SDS011;47690;39.202;-77.198;2023-02-15T12:55:17;1.42;;;1.33;;
50104;SDS011;47690;39.202;-77.198;2023-02-15T12:58:36;1.83;;;1.33;;
50104;SDS011;47690;39.202;-77.198;2023-02-15T13:01:47;1.70;;;1.55;;
50104;SDS011;47690;39.202;-77.198;2023-02-15T13:04:56;1.80;;;1.70;;
50104;SDS011;47690;39.202;-77.198;2023-02-15T13:08:22;1.45;;;1.35;;
50104;SDS011;47690;39.202;-77.198;2023-02-15T13:11:36;1.85;;;1.65;;
50104;SDS011;47690;39.202;-77.198;2023-02-15T13:14:51;1.70;;;1.60;;
50104;SDS011;47690;39.202;-77.198;2023-02-15T13:18:16;1.67;;;1.58;;
50104;SDS011;47690;39.202;-77.198;2023-02-15T13:21:44;1.50;;;1.40;;
50104;SDS011;47690;39.202;-77.198;2023-02-15T13:25:17;2.78;;;1.80;;
50104;SDS011;47690;39.202;-77.198;2023-02-15T13:28:39;1.77;;;1.50;;
50104;SDS011;47690;39.202;-77.198;2023-02-15T13:32:55;3.13;;;1.80;;
50104;SDS011;47690;39.202;-77.198;2023-02-15T14:25:30;1.83;;;1.63;;
50104;SDS011;47690;39.202;-77.198;2023-02-15T14:36:16;1.35;;;1.27;;
50104;SDS011;47690;39.202;-77.198;2023-02-15T14:46:34;1.80;;;1.60;;
50104;SDS011;47690;39.202;-77.198;2023-02-15T14:49:48;1.67;;;1.58;;
50104;SDS011;47690;39.202;-77.198;2023-02-15T14:53:36;1.98;;;1.77;;
50104;SDS011;47690;39.202;-77.198;2023-02-15T15:03:43;1.88;;;1.67;;
50104;SDS011;47690;39.202;-77.198;2023-02-15T15:07:02;1.90;;;1.70;;
50104;SDS011;47690;39.202;-77.198;2023-02-15T15:13:56;1.90;;;1.70;;
50104;SDS011;47690;39.202;-77.198;2023-02-15T15:17:03;2.22;;;1.70;;
50104;SDS011;47690;39.202;-77.198;2023-02-15T15:27:56;1.77;;;1.67;;
50104;SDS011;47690;39.202;-77.198;2023-02-15T15:49:11;2.03;;;1.60;;
50104;SDS011;47690;39.202;-77.198;2023-02-15T15:52:27;1.83;;;1.60;;
50104;SDS011;47690;39.202;-77.198;2023-02-15T15:55:29;3.35;;;1.80;;
50104;SDS011;47690;39.202;-77.198;2023-02-15T15:58:48;3.03;;;1.70;;
50104;SDS011;47690;39.202;-77.198;2023-02-15T16:02:07;2.15;;;1.95;;
50104;SDS011;47690;39.202;-77.198;2023-02-15T16:05:15;1.70;;;1.60;;
50104;SDS011;47690;39.202;-77.198;2023-02-15T16:08:39;1.90;;;1.70;;
50104;SDS011;47690;39.202;-77.198;2023-02-15T16:11:34;2.25;;;1.75;;
50104;SDS011;47690;39.202;-77.198;2023-02-15T16:15:17;3.00;;;1.70;;
50104;SDS011;47690;39.202;-77.198;2023-02-15T16:18:30;1.70;;;1.60;;
50104;SDS011;47690;39.202;-77.198;2023-02-15T16:21:39;1.92;;;1.73;;
50104;SDS011;47690;39.202;-77.198;2023-02-15T16:28:09;2.85;;;1.85;;
50104;SDS011;47690;39.202;-77.198;2023-02-15T16:31:23;2.55;;;1.77;;
50104;SDS011;47690;39.202;-77.198;2023-02-15T16:34:36;2.05;;;1.85;;
50104;SDS011;47690;39.202;-77.198;2023-02-15T16:37:46;2.55;;;1.85;;
50104;SDS011;47690;39.202;-77.198;2023-02-15T16:40:54;3.38;;;2.08;;
50104;SDS011;47690;39.202;-77.198;2023-02-15T16:44:07;1.92;;;1.80;;
50104;SDS011;47690;39.202;-77.198;2023-02-15T16:47:30;1.92;;;1.83;;
50104;SDS011;47690;39.202;-77.198;2023-02-15T16:50:46;1.95;;;1.75;;
50104;SDS011;47690;39.202;-77.198;2023-02-15T16:53:55;1.83;;;1.70;;
50104;SDS011;47690;39.202;-77.198;2023-02-15T16:57:24;2.20;;;1.80;;
50104;SDS011;47690;39.202;-77.198;2023-02-15T17:00:36;1.95;;;1.75;;
50104;SDS011;47690;39.202;-77.198;2023-02-15T17:03:41;2.20;;;1.90;;
50104;SDS011;47690;39.202;-77.198;2023-02-15T17:07:05;2.40;;;1.70;;
50104;SDS011;47690;39.202;-77.198;2023-02-15T17:20:43;2.20;;;1.88;;
50104;SDS011;47690;39.202;-77.198;2023-02-15T17:23:51;1.95;;;1.85;;
50104;SDS011;47690;39.202;-77.198;2023-02-15T17:27:11;1.67;;;1.58;;
50104;SDS011;47690;39.202;-77.198;2023-02-15T17:30:33;1.80;;;1.70;;
50104;SDS011;47690;39.202;-77.198;2023-02-15T17:40:44;3.10;;;2.00;;
50104;SDS011;47690;39.202;-77.198;2023-02-15T17:43:51;2.28;;;2.00;;
50104;SDS011;47690;39.202;-77.198;2023-02-15T17:46:54;3.17;;;2.00;;
50104;SDS011;47690;39.202;-77.198;2023-02-15T17:50:03;2.20;;;1.85;;
50104;SDS011;47690;39.202;-77.198;2023-02-15T17:53:24;2.10;;;1.90;;
50104;SDS011;47690;39.202;-77.198;2023-02-15T17:56:36;2.78;;;2.00;;
50104;SDS011;47690;39.202;-77.198;2023-02-15T17:59:51;2.17;;;1.90;;
50104;SDS011;47690;39.202;-77.198;2023-02-15T18:07:19;2.47;;;1.73;;
50104;SDS011;47690;39.202;-77.198;2023-02-15T18:10:45;1.88;;;1.70;;
50104;SDS011;47690;39.202;-77.198;2023-02-15T18:14:40;2.60;;;1.77;;
50104;SDS011;47690;39.202;-77.198;2023-02-15T18:17:41;3.47;;;1.90;;
50104;SDS011;47690;39.202;-77.198;2023-02-15T18:20:51;2.03;;;1.77;;
50104;SDS011;47690;39.202;-77.198;2023-02-15T18:24:22;3.28;;;2.00;;
50104;SDS011;47690;39.202;-77.198;2023-02-15T18:27:28;2.05;;;1.85;;
50104;SDS011;47690;39.202;-77.198;2023-02-15T18:30:51;1.98;;;1.80;;
50104;SDS011;47690;39.202;-77.198;2023-02-15T18:37:44;3.70;;;1.75;;
50104;SDS011;47690;39.202;-77.198;2023-02-15T18:40:51;2.10;;;1.90;;
50104;SDS011;47690;39.202;-77.198;2023-02-15T18:44:07;1.90;;;1.75;;
50104;SDS011;47690;39.202;-77.198;2023-02-15T18:47:20;2.33;;;2.13;;
50104;SDS011;47690;39.202;-77.198;2023-02-15T18:50:39;2.13;;;1.92;;
50104;SDS011;47690;39.202;-77.198;2023-02-15T18:53:55;2.83;;;2.20;;
50104;SDS011;47690;39.202;-77.198;2023-02-15T18:57:16;3.05;;;2.13;;
50104;SDS011;47690;39.202;-77.198;2023-02-15T19:00:24;2.10;;;1.90;;
50104;SDS011;47690;39.202;-77.198;2023-02-15T19:04:15;2.22;;;1.83;;
50104;SDS011;47690;39.202;-77.198;2023-02-15T19:11:36;2.20;;;1.83;;
50104;SDS011;47690;39.202;-77.198;2023-02-15T19:14:47;2.30;;;1.80;;
50104;SDS011;47690;39.202;-77.198;2023-02-15T19:21:35;1.90;;;1.70;;
50104;SDS011;47690;39.202;-77.198;2023-02-15T19:24:39;2.20;;;2.00;;
50104;SDS011;47690;39.202;-77.198;2023-02-15T19:28:00;2.40;;;2.08;;
50104;SDS011;47690;39.202;-77.198;2023-02-15T19:31:43;3.17;;;1.83;;
50104;SDS011;47690;39.202;-77.198;2023-02-15T19:35:15;2.25;;;2.05;;
50104;SDS011;47690;39.202;-77.198;2023-02-15T19:42:42;1.95;;;1.80;;
50104;SDS011;47690;39.202;-77.198;2023-02-15T19:46:14;2.13;;;1.90;;
50104;SDS011;47690;39.202;-77.198;2023-02-15T19:49:24;2.05;;;1.80;;
50104;SDS011;47690;39.202;-77.198;2023-02-15T19:52:34;2.10;;;1.90;;
50104;SDS011;47690;39.202;-77.198;2023-02-15T19:55:44;2.38;;;2.00;;
50104;SDS011;47690;39.202;-77.198;2023-02-15T20:02:48;2.10;;;1.90;;
50104;SDS011;47690;39.202;-77.198;2023-02-15T20:06:09;1.98;;;1.83;;
50104;SDS011;47690;39.202;-77.198;2023-02-15T20:09:46;2.10;;;1.90;;
50104;SDS011;47690;39.202;-77.198;2023-02-15T20:13:00;2.40;;;2.00;;
50104;SDS011;47690;39.202;-77.198;2023-02-15T20:19:43;3.03;;;1.98;;
50104;SDS011;47690;39.202;-77.198;2023-02-15T20:22:51;1.90;;;1.80;;
50104;SDS011;47690;39.202;-77.198;2023-02-15T20:26:14;2.47;;;1.90;;
50104;SDS011;47690;39.202;-77.198;2023-02-15T20:29:24;5.15;;;2.10;;
50104;SDS011;47690;39.202;-77.198;2023-02-15T20:32:28;2.40;;;1.88;;
50104;SDS011;47690;39.202;-77.198;2023-02-15T20:35:40;2.05;;;1.80;;
50104;SDS011;47690;39.202;-77.198;2023-02-15T20:38:51;2.10;;;1.90;;
50104;SDS011;47690;39.202;-77.198;2023-02-15T20:42:11;2.30;;;2.00;;
50104;SDS011;47690;39.202;-77.198;2023-02-15T20:48:46;3.58;;;1.90;;
50104;SDS011;47690;39.202;-77.198;2023-02-15T20:51:51;2.13;;;1.92;;
50104;SDS011;47690;39.202;-77.198;2023-02-15T20:55:04;1.98;;;1.77;;
50104;SDS011;47690;39.202;-77.198;2023-02-15T20:58:28;2.58;;;2.05;;
50104;SDS011;47690;39.202;-77.198;2023-02-15T21:01:44;2.40;;;1.85;;
50104;SDS011;47690;39.202;-77.198;2023-02-15T21:05:00;2.23;;;1.80;;
50104;SDS011;47690;39.202;-77.198;2023-02-15T21:11:41;2.42;;;1.58;;
50104;SDS011;47690;39.202;-77.198;2023-02-15T21:15:10;2.10;;;1.80;;
50104;SDS011;47690;39.202;-77.198;2023-02-15T21:18:32;1.80;;;1.70;;
50104;SDS011;47690;39.202;-77.198;2023-02-15T21:21:43;2.10;;;1.90;;
50104;SDS011;47690;39.202;-77.198;2023-02-15T21:24:51;2.78;;;2.00;;
50104;SDS011;47690;39.202;-77.198;2023-02-15T21:27:56;2.03;;;1.83;;
50104;SDS011;47690;39.202;-77.198;2023-02-15T21:31:25;2.08;;;1.88;;
50104;SDS011;47690;39.202;-77.198;2023-02-15T21:34:31;2.15;;;1.80;;
50104;SDS011;47690;39.202;-77.198;2023-02-15T21:37:35;3.60;;;2.10;;
50104;SDS011;47690;39.202;-77.198;2023-02-15T21:41:01;2.10;;;1.90;;
50104;SDS011;47690;39.202;-77.198;2023-02-15T21:44:23;3.33;;;1.90;;
50104;SDS011;47690;39.202;-77.198;2023-02-15T21:47:44;2.10;;;1.80;;
50104;SDS011;47690;39.202;-77.198;2023-02-15T21:50:51;2.47;;;1.88;;
50104;SDS011;47690;39.202;-77.198;2023-02-15T21:58:19;2.13;;;1.90;;
50104;SDS011;47690;39.202;-77.198;2023-02-15T22:04:51;2.00;;;1.80;;
50104;SDS011;47690;39.202;-77.198;2023-02-15T22:07:55;1.80;;;1.70;;
50104;SDS011;47690;39.202;-77.198;2023-02-15T22:10:59;2.17;;;1.88;;
50104;SDS011;47690;39.202;-77.198;2023-02-15T22:14:02;2.05;;;1.75;;
50104;SDS011;47690;39.202;-77.198;2023-02-15T22:17:17;1.95;;;1.80;;
50104;SDS011;47690;39.202;-77.198;2023-02-15T22:27:36;2.10;;;1.90;;
50104;SDS011;47690;39.202;-77.198;2023-02-15T22:30:43;2.20;;;2.00;;
50104;SDS011;47690;39.202;-77.198;2023-02-15T22:33:50;2.58;;;2.03;;
50104;SDS011;47690;39.202;-77.198;2023-02-15T22:36:55;2.30;;;1.83;;
50104;SDS011;47690;39.202;-77.198;2023-02-15T22:40:02;2.17;;;1.83;;
50104;SDS011;47690;39.202;-77.198;2023-02-15T22:46:20;2.05;;;1.83;;
50104;SDS011;47690;39.202;-77.198;2023-02-15T22:49:27;2.20;;;1.90;;
50104;SDS011;47690;39.202;-77.198;2023-02-15T22:52:50;2.08;;;1.88;;
50104;SDS011;47690;39.202;-77.198;2023-02-15T22:55:51;2.08;;;1.88;;
50104;SDS011;47690;39.202;-77.198;2023-02-15T22:58:50;2.15;;;1.90;;
50104;SDS011;47690;39.202;-77.198;2023-02-15T23:01:59;2.08;;;1.88;;
50104;SDS011;47690;39.202;-77.198;2023-02-15T23:05:02;2.53;;;2.07;;
50104;SDS011;47690;39.202;-77.198;2023-02-15T23:08:08;2.97;;;2.00;;
50104;SDS011;47690;39.202;-77.198;2023-02-15T23:11:10;2.20;;;2.00;;
50104;SDS011;47690;39.202;-77.198;2023-02-15T23:17:52;2.17;;;1.90;;
50104;SDS011;47690;39.202;-77.198;2023-02-15T23:21:32;3.22;;;1.90;;
50104;SDS011;47690;39.202;-77.198;2023-02-15T23:24:36;4.43;;;2.00;;
50104;SDS011;47690;39.202;-77.198;2023-02-15T23:27:55;3.25;;;1.95;;
50104;SDS011;47690;39.202;-77.198;2023-02-15T23:30:51;1.95;;;1.77;;
50104;SDS011;47690;39.202;-77.198;2023-02-15T23:34:09;2.88;;;2.00;;
50104;SDS011;47690;39.202;-77.198;2023-02-15T23:37:19;2.20;;;1.90;;
50104;SDS011;47690;39.202;-77.198;2023-02-15T23:40:48;2.70;;;1.90;;
50104;SDS011;47690;39.202;-77.198;2023-02-15T23:44:12;2.63;;;2.00;;
50104;SDS011;47690;39.202;-77.198;2023-02-15T23:51:04;2.25;;;2.00;;
50104;SDS011;47690;39.202;-77.198;2023-02-15T23:54:11;2.67;;;2.08;;
50104;SDS011;47690;39.202;-77.198;2023-02-15T23:57:20;3.08;;;2.20;;
